Airport View

Enter AWOS ICAO identifier for current METAR.

ex. KFNL

KSPB 250953Z AUTO 07004KT 10SM CLR 03/M06 A3041 RMK AO2 SLP297 T00281061

25 Oct 2020 10:50

Frequency: 135.875

Phone: 503-543-6401

Other Area AWOS: KVUO - KHIO - KPDX - KKLS

TAF KHIO 250520Z 2506/2606 07010G20KT P6SM SKC